This is the latest recevied weather packets stored in our database for station/object GAPWX. If no packets are shown the sender has not sent any weather packets the latest 10 day(s).
| Time | Temp. | Humidity | Pressure | Rain* | Wind** | Luminosity | Snow |
|---|---|---|---|---|---|---|---|
| 1788156024 | 54° F | 43% | 763.2 mmHg | 0 in | - | - | - |
| 1788154818 | 55° F | 42% | 763.3 mmHg | 0 in | - | - | - |
| 1788153915 | 55° F | 42% | 763.3 mmHg | 0 in | - | - | - |
| 1788153311 | 55° F | 41% | 763.3 mmHg | 0 in | - | - | - |
| 1788151805 | 56° F | 40% | 763.3 mmHg | 0 in | - | - | - |
| 1788151502 | 57° F | 40% | 763.3 mmHg | 0 in | - | - | - |
| 1788149394 | 58° F | 38% | 763.3 mmHg | 0 in | - | - | - |
| 1788149092 | 58° F | 37% | 763.3 mmHg | 0 in | - | - | - |
| 1788147887 | 60° F | 36% | 763.2 mmHg | 0 in | - | - | - |
| 1788146682 | 61° F | 35% | 763.1 mmHg | 0 in | - | - | - |
| 1788146382 | 62° F | 35% | 763 mmHg | 0 in | - | - | - |
| 1788145475 | 63° F | 34% | 763 mmHg | 0 in | - | - | - |
| 1788144874 | 64° F | 34% | 763 mmHg | 0 in | - | - | - |
| 1788143668 | 65° F | 33% | 762.8 mmHg | 0 in | - | - | - |
| 1788143368 | 66° F | 33% | 762.8 mmHg | 0 in | - | - | - |
| 1788143065 | 66° F | 33% | 762.8 mmHg | 0 in | - | - | - |
| 1788142765 | 66° F | 32% | 762.8 mmHg | 0 in | - | - | - |
| 1788142463 | 67° F | 32% | 762.8 mmHg | 0 in | - | - | - |
| 1788141560 | 68° F | 31% | 762.7 mmHg | 0 in | - | - | - |
| 1788129157 | 78° F | 25% | 763 mmHg | 0 in | - | - | - |
| 1788120417 | 78° F | 23% | 763.4 mmHg | 0 in | - | - | - |
| 1788111277 | 71° F | 29% | 763.8 mmHg | 0 in | - | - | - |
| 1788106756 | 60° F | 42% | 763.8 mmHg | 0 in | - | - | - |
| 1788106455 | 58° F | 44% | 763.8 mmHg | 0 in | - | - | - |
| 1788105853 | 54° F | 48% | 763.8 mmHg | 0 in | - | - | - |
* Rain since midnight (hover to see other rain measurements)
** Current wind speed in m/s (hover to see current wind gust speed)